createdAt,value
2022-12-14T00:00:58.360Z,12
2022-12-14T00:02:07.569Z,12
2022-12-14T00:03:16.716Z,12
2022-12-14T00:04:25.907Z,12
2022-12-14T00:05:35.147Z,12
2022-12-14T00:06:44.239Z,9
2022-12-14T00:07:53.408Z,9
2022-12-14T00:09:02.630Z,12
2022-12-14T00:10:10.866Z,12
2022-12-14T00:11:19.955Z,12
2022-12-14T00:12:29.263Z,9
2022-12-14T00:13:38.293Z,12
2022-12-14T00:14:47.583Z,12
2022-12-14T00:15:56.634Z,12
2022-12-14T00:17:05.875Z,12
2022-12-14T00:18:15.045Z,12
2022-12-14T00:19:24.204Z,12
2022-12-14T00:20:33.336Z,12
2022-12-14T00:21:42.529Z,9
2022-12-14T00:22:51.698Z,12
2022-12-14T00:24:00.880Z,12
2022-12-14T00:25:09.076Z,12
2022-12-14T00:26:18.219Z,9
2022-12-14T00:27:27.410Z,12
2022-12-14T00:28:36.578Z,9
2022-12-14T00:29:45.749Z,12
2022-12-14T00:30:54.922Z,12
2022-12-14T00:32:04.098Z,12
2022-12-14T00:33:13.269Z,12
2022-12-14T00:34:22.438Z,12
2022-12-14T00:35:31.607Z,12
2022-12-14T00:36:40.788Z,12
2022-12-14T00:37:49.947Z,9
2022-12-14T00:38:58.167Z,9
2022-12-14T00:40:06.420Z,9
2022-12-14T00:41:15.561Z,12
2022-12-14T00:42:23.785Z,9
2022-12-14T00:43:32.887Z,12
2022-12-14T00:44:41.082Z,12
2022-12-14T00:45:50.295Z,9
2022-12-14T00:46:59.425Z,12
2022-12-14T00:48:08.589Z,12
2022-12-14T00:49:17.818Z,12
2022-12-14T00:50:26.940Z,9
2022-12-14T00:51:36.170Z,12
2022-12-14T00:52:45.289Z,9
2022-12-14T00:55:03.654Z,12
2022-12-14T00:56:12.805Z,9
2022-12-14T00:58:31.157Z,9
2022-12-14T00:59:39.361Z,12
2022-12-14T01:00:47.549Z,12
2022-12-14T01:01:56.717Z,12
2022-12-14T01:03:05.897Z,12
2022-12-14T01:04:15.087Z,12
2022-12-14T01:05:24.277Z,9
2022-12-14T01:06:33.408Z,9
2022-12-14T01:07:42.606Z,12
2022-12-14T01:08:51.771Z,9
2022-12-14T01:10:00.969Z,12
2022-12-14T01:11:10.100Z,9
2022-12-14T01:12:18.302Z,9
2022-12-14T01:13:26.503Z,9
2022-12-14T01:14:35.667Z,12
2022-12-14T01:15:44.834Z,12
2022-12-14T01:16:54.010Z,9
2022-12-14T01:18:03.183Z,12
2022-12-14T01:19:12.362Z,9
2022-12-14T01:20:21.534Z,12
2022-12-14T01:21:30.722Z,9
2022-12-14T01:22:39.884Z,12
2022-12-14T01:23:49.065Z,12
2022-12-14T01:26:07.448Z,12
2022-12-14T01:27:16.569Z,9
2022-12-14T01:28:25.743Z,12
2022-12-14T01:29:33.928Z,9
2022-12-14T01:30:43.112Z,9
2022-12-14T01:31:52.288Z,9
2022-12-14T01:33:01.465Z,12
2022-12-14T01:34:10.718Z,12
2022-12-14T01:35:19.809Z,12
2022-12-14T01:36:28.980Z,9
2022-12-14T01:37:38.182Z,12
2022-12-14T01:38:47.322Z,12
2022-12-14T01:39:56.511Z,16
2022-12-14T01:41:05.679Z,12
2022-12-14T01:42:14.882Z,16
2022-12-14T01:43:24.151Z,12
2022-12-14T01:44:32.240Z,12
2022-12-14T01:45:40.410Z,9
2022-12-14T01:46:49.582Z,12
2022-12-14T01:47:57.771Z,9
2022-12-14T01:50:15.131Z,12
2022-12-14T01:51:24.304Z,9
2022-12-14T01:52:33.527Z,12
2022-12-14T01:53:42.652Z,12
2022-12-14T01:54:51.840Z,12
2022-12-14T01:56:01.013Z,12
2022-12-14T01:57:10.185Z,12
2022-12-14T01:58:19.356Z,12
2022-12-14T01:59:28.529Z,12
2022-12-14T02:00:37.699Z,15
2022-12-14T02:01:46.874Z,15
2022-12-14T02:02:56.062Z,12
2022-12-14T02:04:04.235Z,12
2022-12-14T02:05:13.498Z,9
2022-12-14T02:06:22.596Z,12
2022-12-14T02:07:31.765Z,12
2022-12-14T02:08:40.937Z,12
2022-12-14T02:09:50.116Z,15
2022-12-14T02:10:59.287Z,12
2022-12-14T02:12:08.458Z,9
2022-12-14T02:13:17.824Z,12
2022-12-14T02:14:26.801Z,12
2022-12-14T02:15:35.978Z,12
2022-12-14T02:16:45.151Z,12
2022-12-14T02:17:54.329Z,18
2022-12-14T02:19:02.514Z,12
2022-12-14T02:20:11.702Z,12
2022-12-14T02:21:20.850Z,12
2022-12-14T02:22:30.050Z,12
2022-12-14T02:23:39.259Z,12
2022-12-14T02:24:48.387Z,12
2022-12-14T02:25:57.562Z,12
2022-12-14T02:27:06.817Z,16
2022-12-14T02:28:15.905Z,9
2022-12-14T02:29:25.080Z,9
2022-12-14T02:30:34.258Z,12
2022-12-14T02:31:43.441Z,16
2022-12-14T02:32:52.603Z,9
2022-12-14T02:34:00.787Z,12
2022-12-14T02:35:09.963Z,16
2022-12-14T02:36:19.158Z,12
2022-12-14T02:37:28.317Z,16
2022-12-14T02:38:37.482Z,12
2022-12-14T02:39:46.658Z,9
2022-12-14T02:40:55.841Z,12
2022-12-14T02:42:05.020Z,12
2022-12-14T02:43:14.264Z,15
2022-12-14T02:44:23.368Z,12
2022-12-14T02:45:32.530Z,12
2022-12-14T02:46:41.705Z,12
2022-12-14T02:47:50.877Z,12
2022-12-14T02:48:59.064Z,16
2022-12-14T02:50:08.231Z,12
2022-12-14T02:51:17.409Z,12
2022-12-14T02:52:26.578Z,12
2022-12-14T02:53:35.820Z,12
2022-12-14T02:54:44.925Z,9
2022-12-14T02:55:54.121Z,12
2022-12-14T02:57:02.308Z,9
2022-12-14T02:58:10.551Z,12
2022-12-14T02:59:19.663Z,12
2022-12-14T03:00:28.882Z,12
2022-12-14T03:02:47.195Z,12
2022-12-14T03:05:05.542Z,12
2022-12-14T03:06:14.718Z,12
2022-12-14T03:07:23.886Z,9
2022-12-14T03:08:32.082Z,12
2022-12-14T03:09:40.275Z,12
2022-12-14T03:10:49.445Z,12
2022-12-14T03:11:58.622Z,12
2022-12-14T03:13:07.782Z,15
2022-12-14T03:14:16.959Z,15
2022-12-14T03:15:26.139Z,12
2022-12-14T03:16:35.308Z,12
2022-12-14T03:17:44.478Z,12
2022-12-14T03:18:53.656Z,12
2022-12-14T03:20:02.833Z,9
2022-12-14T03:21:11.995Z,12
2022-12-14T03:22:21.188Z,12
2022-12-14T03:23:30.368Z,16
2022-12-14T03:24:38.582Z,12
2022-12-14T03:25:47.726Z,12
2022-12-14T03:26:56.927Z,12
2022-12-14T03:29:15.243Z,12
2022-12-14T03:30:24.413Z,12
2022-12-14T03:31:33.588Z,9
2022-12-14T03:32:42.774Z,12
2022-12-14T03:33:51.942Z,12
2022-12-14T03:35:01.119Z,15
2022-12-14T03:36:10.295Z,12
2022-12-14T03:37:19.457Z,9
2022-12-14T03:38:28.634Z,12
2022-12-14T03:39:36.819Z,12
2022-12-14T03:40:45.994Z,16
2022-12-14T03:41:55.176Z,9
2022-12-14T03:43:04.340Z,12
2022-12-14T03:44:13.531Z,12
2022-12-14T03:45:22.688Z,12
2022-12-14T03:46:31.885Z,12
2022-12-14T03:47:41.036Z,12
2022-12-14T03:48:50.253Z,9
2022-12-14T03:49:59.446Z,12
2022-12-14T03:51:08.565Z,9
2022-12-14T03:52:17.737Z,12
2022-12-14T03:54:36.100Z,12
2022-12-14T03:55:44.271Z,12
2022-12-14T03:56:53.457Z,12
2022-12-14T03:58:02.615Z,12
2022-12-14T03:59:11.794Z,12
2022-12-14T04:00:20.960Z,12
2022-12-14T04:01:30.148Z,12
2022-12-14T04:02:39.313Z,12
2022-12-14T04:03:48.494Z,12
2022-12-14T04:04:57.665Z,16
2022-12-14T04:06:06.830Z,12
2022-12-14T04:07:16.028Z,12
2022-12-14T04:08:25.195Z,12
2022-12-14T04:09:34.357Z,12
2022-12-14T04:10:42.562Z,12
2022-12-14T04:11:50.738Z,15
2022-12-14T04:12:58.935Z,12
2022-12-14T04:14:08.098Z,12
2022-12-14T04:15:17.326Z,12
2022-12-14T04:17:35.656Z,12
2022-12-14T04:18:44.813Z,12
2022-12-14T04:19:53.000Z,12
2022-12-14T04:21:01.181Z,12
2022-12-14T04:22:10.351Z,12
2022-12-14T04:23:19.568Z,12
2022-12-14T04:24:28.697Z,12
2022-12-14T04:25:37.878Z,12
2022-12-14T04:26:47.058Z,12
2022-12-14T04:27:56.229Z,9
2022-12-14T04:29:05.402Z,12
2022-12-14T04:30:14.578Z,12
2022-12-14T04:31:23.751Z,12
2022-12-14T04:32:32.937Z,9
2022-12-14T04:33:42.095Z,12
2022-12-14T04:34:51.272Z,9
2022-12-14T04:35:59.470Z,12
2022-12-14T04:37:08.728Z,12
2022-12-14T04:38:17.798Z,9
2022-12-14T04:39:27.150Z,9
2022-12-14T04:40:36.145Z,12
2022-12-14T04:42:54.501Z,12
2022-12-14T04:44:03.783Z,9
2022-12-14T04:45:12.916Z,12
2022-12-14T04:46:22.023Z,12
2022-12-14T04:48:40.376Z,9
2022-12-14T04:49:49.540Z,12
2022-12-14T04:50:57.738Z,12
2022-12-14T04:52:06.917Z,12
2022-12-14T04:53:16.121Z,9
2022-12-14T04:54:25.435Z,12
2022-12-14T04:55:34.429Z,9
2022-12-14T04:56:43.609Z,9
2022-12-14T04:57:52.777Z,12
2022-12-14T04:59:01.955Z,12
2022-12-14T05:00:11.135Z,12
2022-12-14T05:01:20.301Z,15
2022-12-14T05:03:38.656Z,12
2022-12-14T05:04:46.834Z,12
2022-12-14T05:05:55.062Z,12
2022-12-14T05:07:04.208Z,12
2022-12-14T05:09:22.569Z,12
2022-12-14T05:10:31.775Z,12
2022-12-14T05:11:40.895Z,12
2022-12-14T05:12:50.068Z,12
2022-12-14T05:13:59.251Z,12
2022-12-14T05:15:08.532Z,12
2022-12-14T05:16:17.594Z,12
2022-12-14T05:17:26.784Z,12
2022-12-14T05:18:35.939Z,12
2022-12-14T05:19:45.111Z,9
2022-12-14T05:20:53.309Z,12
2022-12-14T05:22:02.487Z,9
2022-12-14T05:23:11.661Z,9
2022-12-14T05:24:20.854Z,12
2022-12-14T05:25:30.040Z,9
2022-12-14T05:26:39.180Z,12
2022-12-14T05:27:48.360Z,9
2022-12-14T05:28:57.517Z,12
2022-12-14T05:30:05.710Z,12
2022-12-14T05:31:13.916Z,12
2022-12-14T05:32:23.078Z,12
2022-12-14T05:33:32.250Z,12
2022-12-14T05:34:41.429Z,12
2022-12-14T05:35:50.598Z,16
2022-12-14T05:36:59.781Z,12
2022-12-14T05:38:08.957Z,9
2022-12-14T05:39:18.117Z,12
2022-12-14T05:40:27.298Z,13
2022-12-14T05:41:36.471Z,12
2022-12-14T05:42:45.646Z,15
2022-12-14T05:45:03.998Z,12
2022-12-14T05:46:12.174Z,12
2022-12-14T05:47:21.353Z,16
2022-12-14T05:48:30.521Z,16
2022-12-14T05:49:39.693Z,12
2022-12-14T05:50:48.885Z,9
2022-12-14T05:51:58.163Z,12
2022-12-14T05:53:07.218Z,12
2022-12-14T05:55:25.575Z,12
2022-12-14T05:56:34.802Z,12
2022-12-14T05:57:43.029Z,12
2022-12-14T05:58:51.138Z,12
2022-12-14T06:00:00.321Z,12
2022-12-14T06:01:09.483Z,12
2022-12-14T06:02:18.674Z,12
2022-12-14T06:03:27.829Z,16
2022-12-14T06:04:36.021Z,12
2022-12-14T06:05:45.194Z,12
2022-12-14T06:06:53.381Z,16
2022-12-14T06:08:02.556Z,12
2022-12-14T06:09:11.860Z,12
2022-12-14T06:10:20.977Z,12
2022-12-14T06:11:30.082Z,12
2022-12-14T06:12:39.355Z,12
2022-12-14T06:13:48.451Z,9
2022-12-14T06:14:57.756Z,12
2022-12-14T06:16:06.873Z,12
2022-12-14T06:17:15.974Z,9
2022-12-14T06:19:34.305Z,12
2022-12-14T06:20:43.477Z,12
2022-12-14T06:21:52.636Z,12
2022-12-14T06:23:00.827Z,12
2022-12-14T06:24:10.025Z,12
2022-12-14T06:25:19.240Z,16
2022-12-14T06:26:28.418Z,12
2022-12-14T06:27:37.528Z,12
2022-12-14T06:28:46.705Z,12
2022-12-14T06:29:54.937Z,12
2022-12-14T06:31:03.090Z,12
2022-12-14T06:32:12.256Z,12
2022-12-14T06:33:21.558Z,12
2022-12-14T06:34:30.609Z,15
2022-12-14T06:36:48.046Z,12
2022-12-14T06:37:56.173Z,12
2022-12-14T06:39:04.441Z,12
2022-12-14T06:40:13.669Z,12
2022-12-14T06:41:22.758Z,12
2022-12-14T06:42:31.891Z,15
2022-12-14T06:43:41.105Z,12
2022-12-14T06:44:50.235Z,15
2022-12-14T06:45:59.461Z,12
2022-12-14T06:47:08.681Z,12
2022-12-14T06:48:17.746Z,12
2022-12-14T06:49:26.937Z,15
2022-12-14T06:50:36.163Z,15
2022-12-14T06:51:45.280Z,15
2022-12-14T06:52:54.442Z,15
2022-12-14T06:54:02.639Z,15
2022-12-14T06:55:11.853Z,9
2022-12-14T06:56:21.012Z,15
2022-12-14T06:57:30.160Z,15
2022-12-14T06:58:39.328Z,13
2022-12-14T06:59:48.498Z,10
2022-12-14T07:00:57.680Z,20
2022-12-14T07:02:05.904Z,18
2022-12-14T07:03:14.083Z,18
2022-12-14T07:04:23.234Z,23
2022-12-14T07:05:32.427Z,23
2022-12-14T07:06:41.592Z,27
2022-12-14T07:07:49.871Z,36
2022-12-14T07:08:57.965Z,32
2022-12-14T07:10:07.187Z,28
2022-12-14T07:11:16.320Z,37
2022-12-14T07:12:25.491Z,41
2022-12-14T07:13:34.789Z,47
2022-12-14T07:14:43.929Z,38
2022-12-14T07:15:52.041Z,38
2022-12-14T07:17:01.287Z,60
2022-12-14T07:18:10.385Z,65
2022-12-14T07:19:19.583Z,74
2022-12-14T07:20:28.742Z,75
2022-12-14T07:21:37.907Z,96
2022-12-14T07:23:56.395Z,115
2022-12-14T07:25:05.443Z,145
2022-12-14T07:26:14.606Z,146
2022-12-14T07:27:23.782Z,155
2022-12-14T07:28:32.945Z,169
2022-12-14T07:29:42.142Z,195
2022-12-14T07:30:50.301Z,196
2022-12-14T07:31:59.469Z,230
2022-12-14T07:33:08.680Z,235
2022-12-14T07:34:17.828Z,256
2022-12-14T07:35:27.008Z,271
2022-12-14T07:36:36.285Z,292
2022-12-14T07:38:54.520Z,324
2022-12-14T07:40:03.689Z,340
2022-12-14T07:41:12.884Z,359
2022-12-14T07:42:21.089Z,374
2022-12-14T07:43:29.262Z,413
2022-12-14T07:44:38.431Z,411
2022-12-14T07:45:47.605Z,443
2022-12-14T07:46:56.784Z,453
2022-12-14T07:48:04.978Z,485
2022-12-14T07:49:14.150Z,512
2022-12-14T07:50:22.328Z,530
2022-12-14T07:51:31.513Z,556
2022-12-14T07:52:40.682Z,596
2022-12-14T07:54:59.043Z,619
2022-12-14T07:56:08.295Z,651
2022-12-14T07:57:17.380Z,671
2022-12-14T07:58:26.572Z,708
2022-12-14T07:59:35.740Z,736
2022-12-14T08:00:44.894Z,745
2022-12-14T08:01:54.121Z,806
2022-12-14T08:03:03.249Z,826
2022-12-14T08:05:21.587Z,870
2022-12-14T08:06:29.803Z,882
2022-12-14T08:07:37.995Z,949
2022-12-14T08:08:47.334Z,976
2022-12-14T08:09:56.361Z,1005
2022-12-14T08:11:05.500Z,982
2022-12-14T08:12:14.823Z,994
2022-12-14T08:13:23.995Z,1040
2022-12-14T08:14:33.016Z,1085
2022-12-14T08:15:42.211Z,1084
2022-12-14T08:16:51.369Z,1135
2022-12-14T08:18:00.526Z,1164
2022-12-14T08:19:08.836Z,1220
2022-12-14T08:20:17.927Z,1250
2022-12-14T08:21:26.168Z,1251
2022-12-14T08:22:35.282Z,1227
2022-12-14T08:23:44.525Z,1209
2022-12-14T08:24:53.696Z,1333
2022-12-14T08:26:02.809Z,1387
2022-12-14T08:27:12.021Z,1449
2022-12-14T08:28:21.143Z,1477
2022-12-14T08:30:39.487Z,1541
2022-12-14T08:31:48.660Z,1618
2022-12-14T08:34:07.026Z,1668
2022-12-14T08:35:15.284Z,1717
2022-12-14T08:36:23.423Z,1696
2022-12-14T08:37:32.615Z,1706
2022-12-14T08:38:41.776Z,1748
2022-12-14T08:39:50.933Z,1798
2022-12-14T08:41:00.081Z,1841
2022-12-14T08:42:09.255Z,1850
2022-12-14T08:43:18.518Z,1814
2022-12-14T08:44:27.741Z,1811
2022-12-14T08:45:36.783Z,1803
2022-12-14T08:46:45.949Z,1788
2022-12-14T08:47:54.141Z,1746
2022-12-14T08:49:02.421Z,1801
2022-12-14T08:51:20.676Z,1835
2022-12-14T08:52:29.859Z,1828
2022-12-14T08:53:39.023Z,1814
2022-12-14T08:54:48.249Z,1794
2022-12-14T08:55:57.386Z,1799
2022-12-14T08:57:06.653Z,1804
2022-12-14T08:58:15.763Z,1803
2022-12-14T08:59:24.902Z,1810
2022-12-14T09:01:43.281Z,1825
2022-12-14T09:02:51.442Z,1836
2022-12-14T09:03:59.619Z,1857
2022-12-14T09:05:08.947Z,1871
2022-12-14T09:06:18.020Z,1888
2022-12-14T09:07:27.259Z,1902
2022-12-14T09:08:36.408Z,1919
2022-12-14T09:09:45.491Z,1949
2022-12-14T09:10:54.679Z,1973
2022-12-14T09:12:03.888Z,1993
2022-12-14T09:13:13.155Z,1998
2022-12-14T09:14:22.228Z,2015
2022-12-14T09:15:30.428Z,2039
2022-12-14T09:17:47.742Z,2040
2022-12-14T09:18:57.056Z,2057
2022-12-14T09:20:06.119Z,2085
2022-12-14T09:21:15.266Z,2106
2022-12-14T09:22:24.579Z,2153
2022-12-14T09:23:33.610Z,2222
2022-12-14T09:24:42.801Z,2285
2022-12-14T09:25:51.995Z,2352
2022-12-14T09:27:01.192Z,2434
2022-12-14T09:28:10.407Z,2542
2022-12-14T09:29:19.501Z,2594
2022-12-14T09:30:28.685Z,2400
2022-12-14T09:31:36.944Z,3091
2022-12-14T09:32:46.011Z,2816
2022-12-14T09:33:55.307Z,3090
2022-12-14T09:35:04.459Z,2900
2022-12-14T09:36:13.564Z,3180
2022-12-14T09:37:22.848Z,3280
2022-12-14T09:38:32.050Z,2708
2022-12-14T09:39:41.237Z,1333
2022-12-14T09:40:50.232Z,2368
2022-12-14T09:41:58.434Z,3944
2022-12-14T09:43:06.645Z,11629
2022-12-14T09:44:15.845Z,2131
2022-12-14T09:45:24.966Z,9008
2022-12-14T09:46:34.128Z,8041
2022-12-14T09:48:51.566Z,5417
2022-12-14T09:49:59.711Z,7210
2022-12-14T09:51:07.892Z,2348
2022-12-14T09:52:17.137Z,5585
2022-12-14T09:53:26.233Z,6960
2022-12-14T09:54:35.401Z,7830
2022-12-14T09:55:44.587Z,8458
2022-12-14T09:56:53.762Z,7704
2022-12-14T09:58:02.934Z,8913
2022-12-14T09:59:12.095Z,5176
2022-12-14T10:00:21.286Z,6977
2022-12-14T10:01:30.456Z,10200
2022-12-14T10:02:39.612Z,7458
2022-12-14T10:03:48.796Z,6267
2022-12-14T10:04:57.959Z,7097
2022-12-14T10:06:06.159Z,6613
2022-12-14T10:07:15.316Z,7460
2022-12-14T10:08:24.563Z,8341
2022-12-14T10:09:33.669Z,7259
2022-12-14T10:10:42.842Z,6829
2022-12-14T10:11:52.011Z,6290
2022-12-14T10:13:01.203Z,7408
2022-12-14T10:14:10.354Z,8527
2022-12-14T10:15:18.546Z,6519
2022-12-14T10:16:26.740Z,5967
2022-12-14T10:17:34.933Z,6039
2022-12-14T10:18:43.130Z,6478
2022-12-14T10:19:52.306Z,9306
2022-12-14T10:21:01.485Z,6563
2022-12-14T10:22:10.649Z,4994
2022-12-14T10:23:19.818Z,5401
2022-12-14T10:24:28.986Z,8516
2022-12-14T10:25:38.171Z,8443
2022-12-14T10:26:47.337Z,6830
2022-12-14T10:27:56.506Z,6336
2022-12-14T10:29:05.683Z,5769
2022-12-14T10:30:14.937Z,5848
2022-12-14T10:31:24.036Z,6059
2022-12-14T10:32:33.214Z,6003
2022-12-14T10:33:41.395Z,6029
2022-12-14T10:34:50.566Z,5826
2022-12-14T10:35:59.729Z,5712
2022-12-14T10:37:08.923Z,5868
2022-12-14T10:38:18.170Z,6285
2022-12-14T10:39:27.243Z,6154
2022-12-14T10:40:36.424Z,5770
2022-12-14T10:41:44.619Z,5906
2022-12-14T10:42:52.806Z,5906
2022-12-14T10:44:01.014Z,5994
2022-12-14T10:45:09.185Z,5984
2022-12-14T10:46:18.368Z,6038
2022-12-14T10:47:27.534Z,6090
2022-12-14T10:48:36.707Z,6103
2022-12-14T10:49:45.945Z,6079
2022-12-14T10:50:55.057Z,6111
2022-12-14T10:52:04.219Z,6286
2022-12-14T10:53:13.395Z,6352
2022-12-14T10:54:22.563Z,6400
2022-12-14T10:55:31.762Z,6480
2022-12-14T10:56:40.920Z,6592
2022-12-14T10:57:50.115Z,6507
2022-12-14T10:58:59.254Z,6677
2022-12-14T11:00:07.449Z,6635
2022-12-14T11:01:16.613Z,6623
2022-12-14T11:02:25.840Z,6671
2022-12-14T11:03:34.982Z,6803
2022-12-14T11:04:44.139Z,6807
2022-12-14T11:05:53.313Z,6880
2022-12-14T11:07:01.583Z,6692
2022-12-14T11:08:10.719Z,6632
2022-12-14T11:09:18.886Z,6573
2022-12-14T11:10:27.066Z,6524
2022-12-14T11:11:36.251Z,6499
2022-12-14T11:12:45.409Z,6629
2022-12-14T11:13:54.656Z,6430
2022-12-14T11:15:02.784Z,6152
2022-12-14T11:16:11.088Z,6444
2022-12-14T11:17:20.129Z,6339
2022-12-14T11:18:29.334Z,6516
2022-12-14T11:19:38.483Z,6400
2022-12-14T11:20:47.655Z,6419
2022-12-14T11:21:56.851Z,6391
2022-12-14T11:23:06.054Z,6336
2022-12-14T11:24:15.298Z,6335
2022-12-14T11:25:24.342Z,6325
2022-12-14T11:26:33.516Z,6313
2022-12-14T11:27:42.846Z,6293
2022-12-14T11:28:51.974Z,6346
2022-12-14T11:30:01.050Z,6547
2022-12-14T11:31:09.296Z,6234
2022-12-14T11:32:18.438Z,6549
2022-12-14T11:33:27.579Z,6091
2022-12-14T11:34:36.750Z,6212
2022-12-14T11:35:45.959Z,6429
2022-12-14T11:36:55.119Z,5949
2022-12-14T11:38:04.308Z,6218
2022-12-14T11:39:13.434Z,6140
2022-12-14T11:40:22.609Z,6218
2022-12-14T11:41:31.774Z,6196
2022-12-14T11:42:40.948Z,6204
2022-12-14T11:43:50.151Z,6168
2022-12-14T11:44:59.359Z,6109
2022-12-14T11:46:08.476Z,6229
2022-12-14T11:47:16.670Z,6386
2022-12-14T11:48:25.992Z,6124
2022-12-14T11:49:35.002Z,5981
2022-12-14T11:50:44.170Z,6076
2022-12-14T11:51:53.354Z,6311
2022-12-14T11:53:02.522Z,6141
2022-12-14T11:54:11.699Z,6177
2022-12-14T11:55:20.874Z,6104
2022-12-14T11:56:29.087Z,6148
2022-12-14T11:57:37.240Z,6150
2022-12-14T11:58:46.437Z,6169
2022-12-14T11:59:55.602Z,6140
2022-12-14T12:01:03.846Z,6179
2022-12-14T12:02:11.981Z,6234
2022-12-14T12:03:21.161Z,6333
2022-12-14T12:04:30.317Z,6402
2022-12-14T12:05:39.487Z,6560
2022-12-14T12:06:48.673Z,6676
2022-12-14T12:07:57.843Z,6734
2022-12-14T12:09:07.016Z,6752
2022-12-14T12:10:16.188Z,6830
2022-12-14T12:11:25.355Z,6966
2022-12-14T12:12:34.608Z,7106
2022-12-14T12:13:43.901Z,7195
2022-12-14T12:14:52.885Z,7314
2022-12-14T12:16:02.296Z,7399
2022-12-14T12:17:10.394Z,7404
2022-12-14T12:18:19.523Z,7462
2022-12-14T12:19:28.583Z,7429
2022-12-14T12:20:37.779Z,7544
2022-12-14T12:21:46.940Z,7717
2022-12-14T12:22:56.112Z,7387
2022-12-14T12:24:05.346Z,7234
2022-12-14T12:25:13.475Z,7281
2022-12-14T12:26:21.653Z,7248
2022-12-14T12:27:29.851Z,7229
2022-12-14T12:28:38.048Z,7409
2022-12-14T12:29:47.294Z,7302
2022-12-14T12:30:56.401Z,7231
2022-12-14T12:32:05.782Z,7354
2022-12-14T12:33:14.729Z,5525
2022-12-14T12:34:23.911Z,8396
2022-12-14T12:35:33.077Z,8956
2022-12-14T12:36:42.251Z,6651
2022-12-14T12:37:51.419Z,4121
2022-12-14T12:39:00.602Z,5316
2022-12-14T12:40:09.770Z,6215
2022-12-14T12:41:19.287Z,8901
2022-12-14T12:42:28.119Z,8757
2022-12-14T12:43:36.303Z,8568
2022-12-14T12:44:45.471Z,9271
2022-12-14T12:45:54.645Z,9555
2022-12-14T12:47:03.825Z,10299
2022-12-14T12:48:12.985Z,7281
2022-12-14T12:49:22.167Z,8391
2022-12-14T12:50:31.332Z,7796
2022-12-14T12:51:39.589Z,11653
2022-12-14T12:52:47.732Z,6076
2022-12-14T12:53:56.976Z,12499
2022-12-14T12:55:06.062Z,7023
2022-12-14T12:56:15.245Z,8700
2022-12-14T12:57:23.448Z,24471
2022-12-14T12:58:31.696Z,8363
2022-12-14T12:59:40.808Z,8476
2022-12-14T13:00:49.960Z,8610
2022-12-14T13:01:59.138Z,11879
2022-12-14T13:03:08.315Z,30474
2022-12-14T13:04:17.478Z,9086
2022-12-14T13:05:26.655Z,11624
2022-12-14T13:06:35.834Z,20582
2022-12-14T13:07:44.999Z,18586
2022-12-14T13:08:54.175Z,26253
2022-12-14T13:10:03.350Z,29247
2022-12-14T13:11:12.508Z,9906
2022-12-14T13:12:21.756Z,18033
2022-12-14T13:13:30.972Z,10361
2022-12-14T13:14:39.095Z,13171
2022-12-14T13:15:48.227Z,25530
2022-12-14T13:16:57.396Z,15536
2022-12-14T13:18:06.569Z,8918
2022-12-14T13:19:15.771Z,18276
2022-12-14T13:20:24.923Z,23874
2022-12-14T13:21:33.150Z,10081
2022-12-14T13:22:41.452Z,11230
2022-12-14T13:23:49.498Z,20701
2022-12-14T13:24:57.687Z,15464
2022-12-14T13:26:06.869Z,15735
2022-12-14T13:27:16.037Z,8739
2022-12-14T13:28:25.321Z,23870
2022-12-14T13:29:34.374Z,22915
2022-12-14T13:30:43.549Z,9888
2022-12-14T13:31:52.712Z,15339
2022-12-14T13:33:01.892Z,16737
2022-12-14T13:34:11.153Z,20305
2022-12-14T13:35:20.235Z,13582
2022-12-14T13:36:29.419Z,16814
2022-12-14T13:37:38.587Z,24209
2022-12-14T13:38:47.780Z,15499
2022-12-14T13:39:55.967Z,12590
2022-12-14T13:41:05.135Z,14380
2022-12-14T13:42:14.358Z,21873
2022-12-14T13:43:23.461Z,22345
2022-12-14T13:44:32.631Z,8684
2022-12-14T13:45:41.828Z,15218
2022-12-14T13:46:50.976Z,15770
2022-12-14T13:47:59.168Z,6811
2022-12-14T13:49:07.365Z,19109
2022-12-14T13:50:16.543Z,24067
2022-12-14T13:51:25.733Z,11797
2022-12-14T13:52:34.885Z,20706
2022-12-14T13:54:53.239Z,26197
2022-12-14T13:56:02.400Z,23970
2022-12-14T13:57:11.568Z,20467
2022-12-14T13:58:20.847Z,32108
2022-12-14T13:59:29.910Z,33948
2022-12-14T14:00:39.091Z,31823
2022-12-14T14:01:48.266Z,19646
2022-12-14T14:02:57.450Z,13941
2022-12-14T14:04:05.616Z,10894
2022-12-14T14:05:14.802Z,15135
2022-12-14T14:06:23.966Z,23806
2022-12-14T14:07:33.145Z,14624
2022-12-14T14:08:42.312Z,13643
2022-12-14T14:09:51.479Z,16599
2022-12-14T14:11:00.668Z,11658
2022-12-14T14:12:09.878Z,18669
2022-12-14T14:13:18.020Z,16590
2022-12-14T14:14:26.216Z,19574
2022-12-14T14:15:34.416Z,12802
2022-12-14T14:16:42.638Z,10915
2022-12-14T14:17:51.800Z,12630
2022-12-14T14:19:00.942Z,21391
2022-12-14T14:21:19.278Z,9150
2022-12-14T14:22:28.509Z,10374
2022-12-14T14:23:37.630Z,16950
2022-12-14T14:24:46.811Z,13134
2022-12-14T14:25:55.972Z,13942
2022-12-14T14:27:05.372Z,17878
2022-12-14T14:28:14.478Z,13757
2022-12-14T14:29:23.554Z,4546
2022-12-14T14:30:32.724Z,2943
2022-12-14T14:31:40.844Z,3996
2022-12-14T14:32:50.030Z,6843
2022-12-14T14:33:59.195Z,9461
2022-12-14T14:35:08.370Z,2811
2022-12-14T14:36:17.724Z,3554
2022-12-14T14:37:26.799Z,6943
2022-12-14T14:38:36.058Z,5342
2022-12-14T14:39:45.109Z,3300
2022-12-14T14:40:54.240Z,2127
2022-12-14T14:42:03.423Z,2390
2022-12-14T14:43:12.581Z,2518
2022-12-14T14:44:20.771Z,2495
2022-12-14T14:45:28.963Z,2278
2022-12-14T14:46:38.146Z,2154
2022-12-14T14:48:56.473Z,2040
2022-12-14T14:50:05.676Z,1960
2022-12-14T14:52:24.021Z,1871
2022-12-14T14:53:33.178Z,1854
2022-12-14T14:54:42.367Z,1748
2022-12-14T14:55:51.521Z,1736
2022-12-14T14:57:00.695Z,1573
2022-12-14T14:58:08.901Z,1427
2022-12-14T14:59:17.083Z,1423
2022-12-14T15:00:26.259Z,1372
2022-12-14T15:01:35.435Z,1277
2022-12-14T15:02:44.599Z,1207
2022-12-14T15:03:53.782Z,1150
2022-12-14T15:05:02.961Z,1121
2022-12-14T15:06:12.129Z,1092
2022-12-14T15:07:21.318Z,1067
2022-12-14T15:08:30.471Z,1007
2022-12-14T15:09:39.660Z,957
2022-12-14T15:10:48.823Z,880
2022-12-14T15:11:57.991Z,804
2022-12-14T15:13:07.166Z,774
2022-12-14T15:14:15.376Z,707
2022-12-14T15:15:24.523Z,666
2022-12-14T15:16:33.701Z,616
2022-12-14T15:17:42.873Z,558
2022-12-14T15:18:52.052Z,560
2022-12-14T15:20:01.233Z,506
2022-12-14T15:21:10.482Z,466
2022-12-14T15:22:18.589Z,433
2022-12-14T15:23:26.779Z,397
2022-12-14T15:24:34.984Z,365
2022-12-14T15:25:43.177Z,329
2022-12-14T15:26:52.343Z,305
2022-12-14T15:28:01.526Z,273
2022-12-14T15:29:10.690Z,237
2022-12-14T15:30:19.855Z,222
2022-12-14T15:31:29.048Z,191
2022-12-14T15:32:38.205Z,172
2022-12-14T15:33:47.385Z,149
2022-12-14T15:34:56.548Z,139
2022-12-14T15:36:05.731Z,120
2022-12-14T15:37:14.908Z,110
2022-12-14T15:38:24.107Z,91
2022-12-14T15:39:33.257Z,90
2022-12-14T15:40:41.442Z,77
2022-12-14T15:41:50.629Z,54
2022-12-14T15:42:59.788Z,57
2022-12-14T15:44:09.006Z,51
2022-12-14T15:45:18.224Z,47
2022-12-14T15:46:27.476Z,45
2022-12-14T15:47:36.469Z,47
2022-12-14T15:48:44.684Z,36
2022-12-14T15:49:52.859Z,35
2022-12-14T15:51:02.040Z,30
2022-12-14T15:52:11.223Z,26
2022-12-14T15:53:20.551Z,20
2022-12-14T15:54:29.645Z,24
2022-12-14T15:55:38.735Z,20
2022-12-14T15:56:47.973Z,15
2022-12-14T15:59:06.252Z,18
2022-12-14T16:00:15.433Z,15
2022-12-14T16:01:24.592Z,15
2022-12-14T16:02:33.796Z,15
2022-12-14T16:03:43.003Z,9
2022-12-14T16:04:51.160Z,15
2022-12-14T16:06:00.361Z,9
2022-12-14T16:07:09.696Z,9
2022-12-14T16:08:18.769Z,9
2022-12-14T16:09:27.822Z,12
2022-12-14T16:10:37.015Z,9
2022-12-14T16:11:46.182Z,12
2022-12-14T16:12:55.370Z,12
2022-12-14T16:14:04.524Z,12
2022-12-14T16:15:12.722Z,12
2022-12-14T16:16:20.913Z,12
2022-12-14T16:17:30.100Z,12
2022-12-14T16:18:38.280Z,12
2022-12-14T16:19:46.503Z,12
2022-12-14T16:20:55.775Z,9
2022-12-14T16:22:05.054Z,12
2022-12-14T16:23:14.179Z,12
2022-12-14T16:24:23.168Z,9
2022-12-14T16:25:32.364Z,12
2022-12-14T16:26:41.519Z,9
2022-12-14T16:27:50.688Z,12
2022-12-14T16:28:59.866Z,9
2022-12-14T16:30:09.101Z,12